sensor_id;sensor_type;location;lat;lon;timestamp;P1;durP1;ratioP1;P2;durP2;ratioP2
20697;SDS011;10508;50.956;4.640;2023-02-15T00:01:50;32.80;;;14.88;;
20697;SDS011;10508;50.956;4.640;2023-02-15T00:04:18;44.22;;;16.23;;
20697;SDS011;10508;50.956;4.640;2023-02-15T00:06:45;37.92;;;14.55;;
20697;SDS011;10508;50.956;4.640;2023-02-15T00:09:10;34.80;;;14.75;;
20697;SDS011;10508;50.956;4.640;2023-02-15T00:11:37;33.70;;;13.85;;
20697;SDS011;10508;50.956;4.640;2023-02-15T00:14:18;41.50;;;14.40;;
20697;SDS011;10508;50.956;4.640;2023-02-15T00:16:45;34.10;;;15.45;;
20697;SDS011;10508;50.956;4.640;2023-02-15T00:19:12;49.75;;;16.25;;
20697;SDS011;10508;50.956;4.640;2023-02-15T00:21:39;37.58;;;16.30;;
20697;SDS011;10508;50.956;4.640;2023-02-15T00:24:05;43.15;;;15.15;;
20697;SDS011;10508;50.956;4.640;2023-02-15T00:26:33;41.78;;;16.63;;
20697;SDS011;10508;50.956;4.640;2023-02-15T00:28:59;37.60;;;15.77;;
20697;SDS011;10508;50.956;4.640;2023-02-15T00:31:25;43.83;;;15.77;;
20697;SDS011;10508;50.956;4.640;2023-02-15T00:33:52;31.25;;;14.27;;
20697;SDS011;10508;50.956;4.640;2023-02-15T00:36:18;36.20;;;14.20;;
20697;SDS011;10508;50.956;4.640;2023-02-15T00:38:43;33.00;;;14.05;;
20697;SDS011;10508;50.956;4.640;2023-02-15T00:41:09;38.85;;;15.27;;
20697;SDS011;10508;50.956;4.640;2023-02-15T00:43:35;39.40;;;15.93;;
20697;SDS011;10508;50.956;4.640;2023-02-15T00:46:02;37.70;;;14.68;;
20697;SDS011;10508;50.956;4.640;2023-02-15T00:48:29;35.72;;;15.73;;
20697;SDS011;10508;50.956;4.640;2023-02-15T00:50:56;42.95;;;16.45;;
20697;SDS011;10508;50.956;4.640;2023-02-15T00:53:24;38.47;;;15.50;;
20697;SDS011;10508;50.956;4.640;2023-02-15T00:55:51;40.47;;;16.08;;
20697;SDS011;10508;50.956;4.640;2023-02-15T00:58:17;49.63;;;16.52;;
20697;SDS011;10508;50.956;4.640;2023-02-15T01:00:43;41.05;;;15.68;;
20697;SDS011;10508;50.956;4.640;2023-02-15T01:03:11;44.17;;;15.77;;
20697;SDS011;10508;50.956;4.640;2023-02-15T01:05:38;39.00;;;15.95;;
20697;SDS011;10508;50.956;4.640;2023-02-15T01:08:04;37.35;;;15.77;;
20697;SDS011;10508;50.956;4.640;2023-02-15T01:10:30;47.85;;;16.25;;
20697;SDS011;10508;50.956;4.640;2023-02-15T01:12:56;41.60;;;16.33;;
20697;SDS011;10508;50.956;4.640;2023-02-15T01:15:22;41.67;;;16.52;;
20697;SDS011;10508;50.956;4.640;2023-02-15T01:17:49;39.30;;;16.23;;
20697;SDS011;10508;50.956;4.640;2023-02-15T01:20:18;39.78;;;15.45;;
20697;SDS011;10508;50.956;4.640;2023-02-15T01:22:44;46.15;;;17.55;;
20697;SDS011;10508;50.956;4.640;2023-02-15T01:25:10;35.65;;;15.30;;
20697;SDS011;10508;50.956;4.640;2023-02-15T01:27:36;42.47;;;16.00;;
20697;SDS011;10508;50.956;4.640;2023-02-15T01:30:01;45.95;;;15.73;;
20697;SDS011;10508;50.956;4.640;2023-02-15T01:32:29;37.63;;;15.63;;
20697;SDS011;10508;50.956;4.640;2023-02-15T01:34:55;45.50;;;17.35;;
20697;SDS011;10508;50.956;4.640;2023-02-15T01:37:21;42.50;;;16.20;;
20697;SDS011;10508;50.956;4.640;2023-02-15T01:39:47;52.80;;;17.92;;
20697;SDS011;10508;50.956;4.640;2023-02-15T01:42:12;42.60;;;16.42;;
20697;SDS011;10508;50.956;4.640;2023-02-15T01:44:46;41.95;;;16.27;;
20697;SDS011;10508;50.956;4.640;2023-02-15T01:47:20;44.92;;;15.82;;
20697;SDS011;10508;50.956;4.640;2023-02-15T01:49:50;42.25;;;17.48;;
20697;SDS011;10508;50.956;4.640;2023-02-15T01:55:28;50.42;;;17.90;;
20697;SDS011;10508;50.956;4.640;2023-02-15T01:58:00;40.38;;;16.42;;
20697;SDS011;10508;50.956;4.640;2023-02-15T02:00:26;39.90;;;16.60;;
20697;SDS011;10508;50.956;4.640;2023-02-15T02:02:53;49.00;;;17.73;;
20697;SDS011;10508;50.956;4.640;2023-02-15T02:05:21;46.97;;;17.70;;
20697;SDS011;10508;50.956;4.640;2023-02-15T02:07:47;44.17;;;16.83;;
20697;SDS011;10508;50.956;4.640;2023-02-15T02:10:18;52.42;;;17.98;;
20697;SDS011;10508;50.956;4.640;2023-02-15T02:12:47;45.65;;;17.15;;
20697;SDS011;10508;50.956;4.640;2023-02-15T02:15:16;53.17;;;18.58;;
20697;SDS011;10508;50.956;4.640;2023-02-15T02:17:52;51.67;;;17.65;;
20697;SDS011;10508;50.956;4.640;2023-02-15T02:23:31;47.85;;;17.95;;
20697;SDS011;10508;50.956;4.640;2023-02-15T02:34:07;43.67;;;17.73;;
20697;SDS011;10508;50.956;4.640;2023-02-15T02:36:36;49.92;;;19.02;;
20697;SDS011;10508;50.956;4.640;2023-02-15T02:42:12;44.55;;;17.95;;
20697;SDS011;10508;50.956;4.640;2023-02-15T02:49:46;48.03;;;17.33;;
20697;SDS011;10508;50.956;4.640;2023-02-15T02:55:24;48.70;;;17.15;;
20697;SDS011;10508;50.956;4.640;2023-02-15T03:01:15;48.70;;;17.23;;
20697;SDS011;10508;50.956;4.640;2023-02-15T03:03:51;46.55;;;16.90;;
20697;SDS011;10508;50.956;4.640;2023-02-15T03:06:55;43.38;;;16.42;;
20697;SDS011;10508;50.956;4.640;2023-02-15T03:09:34;37.92;;;16.27;;
20697;SDS011;10508;50.956;4.640;2023-02-15T03:12:16;45.53;;;17.52;;
20697;SDS011;10508;50.956;4.640;2023-02-15T03:14:51;41.90;;;16.75;;
20697;SDS011;10508;50.956;4.640;2023-02-15T03:17:20;42.47;;;16.38;;
20697;SDS011;10508;50.956;4.640;2023-02-15T03:19:48;45.90;;;16.27;;
20697;SDS011;10508;50.956;4.640;2023-02-15T03:24:54;41.15;;;16.23;;
20697;SDS011;10508;50.956;4.640;2023-02-15T03:27:28;40.40;;;16.50;;
20697;SDS011;10508;50.956;4.640;2023-02-15T03:29:58;39.83;;;15.50;;
20697;SDS011;10508;50.956;4.640;2023-02-15T03:32:27;38.50;;;16.38;;
20697;SDS011;10508;50.956;4.640;2023-02-15T03:34:54;47.72;;;16.95;;
20697;SDS011;10508;50.956;4.640;2023-02-15T03:37:24;39.13;;;16.42;;
20697;SDS011;10508;50.956;4.640;2023-02-15T03:39:54;50.63;;;17.75;;
20697;SDS011;10508;50.956;4.640;2023-02-15T03:42:46;43.28;;;15.18;;
20697;SDS011;10508;50.956;4.640;2023-02-15T03:45:17;43.20;;;16.33;;
20697;SDS011;10508;50.956;4.640;2023-02-15T03:47:50;44.92;;;15.95;;
20697;SDS011;10508;50.956;4.640;2023-02-15T03:50:20;46.42;;;15.70;;
20697;SDS011;10508;50.956;4.640;2023-02-15T03:53:09;52.80;;;17.60;;
20697;SDS011;10508;50.956;4.640;2023-02-15T03:55:38;42.45;;;16.33;;
20697;SDS011;10508;50.956;4.640;2023-02-15T03:58:04;38.50;;;16.73;;
20697;SDS011;10508;50.956;4.640;2023-02-15T04:00:54;44.72;;;17.45;;
20697;SDS011;10508;50.956;4.640;2023-02-15T04:03:45;41.05;;;16.63;;
20697;SDS011;10508;50.956;4.640;2023-02-15T04:06:13;43.28;;;17.75;;
20697;SDS011;10508;50.956;4.640;2023-02-15T04:08:39;41.20;;;16.52;;
20697;SDS011;10508;50.956;4.640;2023-02-15T04:11:24;38.92;;;16.40;;
20697;SDS011;10508;50.956;4.640;2023-02-15T04:13:49;43.90;;;17.90;;
20697;SDS011;10508;50.956;4.640;2023-02-15T04:16:21;41.63;;;16.23;;
20697;SDS011;10508;50.956;4.640;2023-02-15T04:18:47;43.42;;;16.77;;
20697;SDS011;10508;50.956;4.640;2023-02-15T04:21:32;43.33;;;16.98;;
20697;SDS011;10508;50.956;4.640;2023-02-15T04:24:16;47.25;;;17.70;;
20697;SDS011;10508;50.956;4.640;2023-02-15T04:27:01;40.25;;;16.05;;
20697;SDS011;10508;50.956;4.640;2023-02-15T04:29:29;42.15;;;15.10;;
20697;SDS011;10508;50.956;4.640;2023-02-15T04:31:56;44.70;;;16.67;;
20697;SDS011;10508;50.956;4.640;2023-02-15T04:34:23;40.40;;;16.00;;
20697;SDS011;10508;50.956;4.640;2023-02-15T04:36:49;36.83;;;14.95;;
20697;SDS011;10508;50.956;4.640;2023-02-15T04:39:16;41.05;;;15.63;;
20697;SDS011;10508;50.956;4.640;2023-02-15T04:41:42;42.67;;;15.93;;
20697;SDS011;10508;50.956;4.640;2023-02-15T04:44:09;40.00;;;14.52;;
20697;SDS011;10508;50.956;4.640;2023-02-15T04:46:34;38.80;;;14.60;;
20697;SDS011;10508;50.956;4.640;2023-02-15T04:49:00;37.42;;;14.98;;
20697;SDS011;10508;50.956;4.640;2023-02-15T04:51:26;45.38;;;16.25;;
20697;SDS011;10508;50.956;4.640;2023-02-15T04:53:52;43.97;;;16.38;;
20697;SDS011;10508;50.956;4.640;2023-02-15T04:56:18;40.10;;;15.68;;
20697;SDS011;10508;50.956;4.640;2023-02-15T04:58:44;46.42;;;16.75;;
20697;SDS011;10508;50.956;4.640;2023-02-15T05:01:10;46.65;;;16.60;;
20697;SDS011;10508;50.956;4.640;2023-02-15T05:03:36;43.67;;;16.35;;
20697;SDS011;10508;50.956;4.640;2023-02-15T05:06:02;42.08;;;16.33;;
20697;SDS011;10508;50.956;4.640;2023-02-15T05:08:29;43.17;;;16.40;;
20697;SDS011;10508;50.956;4.640;2023-02-15T05:10:55;40.55;;;15.52;;
20697;SDS011;10508;50.956;4.640;2023-02-15T05:13:21;40.05;;;17.02;;
20697;SDS011;10508;50.956;4.640;2023-02-15T05:15:50;45.63;;;17.20;;
20697;SDS011;10508;50.956;4.640;2023-02-15T05:18:17;45.67;;;16.17;;
20697;SDS011;10508;50.956;4.640;2023-02-15T05:20:44;46.85;;;16.23;;
20697;SDS011;10508;50.956;4.640;2023-02-15T05:23:10;45.63;;;15.98;;
20697;SDS011;10508;50.956;4.640;2023-02-15T05:25:35;37.38;;;15.93;;
20697;SDS011;10508;50.956;4.640;2023-02-15T05:28:20;48.50;;;16.90;;
20697;SDS011;10508;50.956;4.640;2023-02-15T05:30:47;48.03;;;17.58;;
20697;SDS011;10508;50.956;4.640;2023-02-15T05:33:15;40.05;;;15.65;;
20697;SDS011;10508;50.956;4.640;2023-02-15T05:35:40;46.25;;;17.83;;
20697;SDS011;10508;50.956;4.640;2023-02-15T05:38:06;61.55;;;17.33;;
20697;SDS011;10508;50.956;4.640;2023-02-15T05:40:32;49.65;;;17.50;;
20697;SDS011;10508;50.956;4.640;2023-02-15T05:42:58;62.75;;;18.27;;
20697;SDS011;10508;50.956;4.640;2023-02-15T05:45:24;43.58;;;16.42;;
20697;SDS011;10508;50.956;4.640;2023-02-15T05:47:50;45.25;;;17.42;;
20697;SDS011;10508;50.956;4.640;2023-02-15T05:50:16;41.33;;;16.42;;
20697;SDS011;10508;50.956;4.640;2023-02-15T05:52:42;51.40;;;18.30;;
20697;SDS011;10508;50.956;4.640;2023-02-15T05:55:08;45.95;;;17.55;;
20697;SDS011;10508;50.956;4.640;2023-02-15T05:57:34;43.03;;;16.55;;
20697;SDS011;10508;50.956;4.640;2023-02-15T06:00:00;41.97;;;16.35;;
20697;SDS011;10508;50.956;4.640;2023-02-15T06:02:32;40.25;;;15.18;;
20697;SDS011;10508;50.956;4.640;2023-02-15T06:04:59;47.90;;;17.25;;
20697;SDS011;10508;50.956;4.640;2023-02-15T06:07:24;43.58;;;16.90;;
20697;SDS011;10508;50.956;4.640;2023-02-15T06:09:50;44.25;;;16.48;;
20697;SDS011;10508;50.956;4.640;2023-02-15T06:12:15;44.40;;;15.43;;
20697;SDS011;10508;50.956;4.640;2023-02-15T06:14:41;41.80;;;16.77;;
20697;SDS011;10508;50.956;4.640;2023-02-15T06:17:07;43.75;;;16.73;;
20697;SDS011;10508;50.956;4.640;2023-02-15T06:19:32;51.60;;;16.80;;
20697;SDS011;10508;50.956;4.640;2023-02-15T06:21:58;42.72;;;16.15;;
20697;SDS011;10508;50.956;4.640;2023-02-15T06:24:24;47.97;;;17.67;;
20697;SDS011;10508;50.956;4.640;2023-02-15T06:26:49;42.13;;;16.92;;
20697;SDS011;10508;50.956;4.640;2023-02-15T06:29:15;46.63;;;17.65;;
20697;SDS011;10508;50.956;4.640;2023-02-15T06:31:40;47.17;;;16.27;;
20697;SDS011;10508;50.956;4.640;2023-02-15T06:34:06;48.30;;;17.20;;
20697;SDS011;10508;50.956;4.640;2023-02-15T06:36:32;47.03;;;16.08;;
20697;SDS011;10508;50.956;4.640;2023-02-15T06:38:57;53.85;;;17.17;;
20697;SDS011;10508;50.956;4.640;2023-02-15T06:41:23;45.33;;;17.00;;
20697;SDS011;10508;50.956;4.640;2023-02-15T06:43:49;47.45;;;17.33;;
20697;SDS011;10508;50.956;4.640;2023-02-15T06:46:15;52.88;;;16.75;;
20697;SDS011;10508;50.956;4.640;2023-02-15T06:48:41;58.20;;;17.65;;
20697;SDS011;10508;50.956;4.640;2023-02-15T06:51:06;56.10;;;15.80;;
20697;SDS011;10508;50.956;4.640;2023-02-15T06:53:32;44.20;;;15.48;;
20697;SDS011;10508;50.956;4.640;2023-02-15T06:56:05;44.92;;;16.02;;
20697;SDS011;10508;50.956;4.640;2023-02-15T06:58:38;51.25;;;17.90;;
20697;SDS011;10508;50.956;4.640;2023-02-15T07:01:05;42.67;;;17.13;;
20697;SDS011;10508;50.956;4.640;2023-02-15T07:03:32;41.72;;;15.95;;
20697;SDS011;10508;50.956;4.640;2023-02-15T07:05:58;41.53;;;14.77;;
20697;SDS011;10508;50.956;4.640;2023-02-15T07:08:26;44.92;;;15.02;;
20697;SDS011;10508;50.956;4.640;2023-02-15T07:10:53;42.08;;;17.10;;
20697;SDS011;10508;50.956;4.640;2023-02-15T07:13:20;41.45;;;14.75;;
20697;SDS011;10508;50.956;4.640;2023-02-15T07:15:46;48.97;;;16.95;;
20697;SDS011;10508;50.956;4.640;2023-02-15T07:18:13;41.55;;;15.60;;
20697;SDS011;10508;50.956;4.640;2023-02-15T07:20:39;44.47;;;15.27;;
20697;SDS011;10508;50.956;4.640;2023-02-15T07:23:06;49.35;;;17.13;;
20697;SDS011;10508;50.956;4.640;2023-02-15T07:25:33;44.65;;;16.65;;
20697;SDS011;10508;50.956;4.640;2023-02-15T07:27:59;50.67;;;17.00;;
20697;SDS011;10508;50.956;4.640;2023-02-15T07:30:27;53.13;;;18.45;;
20697;SDS011;10508;50.956;4.640;2023-02-15T07:32:57;45.97;;;17.52;;
20697;SDS011;10508;50.956;4.640;2023-02-15T07:36:00;49.22;;;17.52;;
20697;SDS011;10508;50.956;4.640;2023-02-15T07:38:29;48.45;;;18.23;;
20697;SDS011;10508;50.956;4.640;2023-02-15T07:41:30;51.72;;;16.90;;
20697;SDS011;10508;50.956;4.640;2023-02-15T07:43:49;50.15;;;17.13;;
20697;SDS011;10508;50.956;4.640;2023-02-15T07:46:15;49.22;;;18.20;;
20697;SDS011;10508;50.956;4.640;2023-02-15T07:48:42;47.72;;;18.60;;
20697;SDS011;10508;50.956;4.640;2023-02-15T07:51:09;48.35;;;19.23;;
20697;SDS011;10508;50.956;4.640;2023-02-15T07:53:36;51.78;;;19.48;;
20697;SDS011;10508;50.956;4.640;2023-02-15T07:56:04;55.17;;;20.27;;
20697;SDS011;10508;50.956;4.640;2023-02-15T07:58:32;53.70;;;19.35;;
20697;SDS011;10508;50.956;4.640;2023-02-15T08:01:26;56.50;;;19.27;;
20697;SDS011;10508;50.956;4.640;2023-02-15T08:03:54;52.03;;;18.90;;
20697;SDS011;10508;50.956;4.640;2023-02-15T08:06:21;48.35;;;18.60;;
20697;SDS011;10508;50.956;4.640;2023-02-15T08:08:47;47.47;;;18.05;;
20697;SDS011;10508;50.956;4.640;2023-02-15T08:14:14;50.13;;;20.00;;
20697;SDS011;10508;50.956;4.640;2023-02-15T08:19:12;49.92;;;19.92;;
20697;SDS011;10508;50.956;4.640;2023-02-15T08:21:47;56.95;;;20.52;;
20697;SDS011;10508;50.956;4.640;2023-02-15T08:24:14;72.93;;;21.15;;
20697;SDS011;10508;50.956;4.640;2023-02-15T08:26:42;44.15;;;18.58;;
20697;SDS011;10508;50.956;4.640;2023-02-15T08:29:10;53.22;;;19.00;;
20697;SDS011;10508;50.956;4.640;2023-02-15T08:31:36;47.53;;;18.88;;
20697;SDS011;10508;50.956;4.640;2023-02-15T08:34:02;52.40;;;20.63;;
20697;SDS011;10508;50.956;4.640;2023-02-15T08:36:29;54.97;;;20.35;;
20697;SDS011;10508;50.956;4.640;2023-02-15T08:38:57;46.85;;;19.08;;
20697;SDS011;10508;50.956;4.640;2023-02-15T08:41:24;50.80;;;19.08;;
20697;SDS011;10508;50.956;4.640;2023-02-15T08:43:52;49.35;;;18.58;;
20697;SDS011;10508;50.956;4.640;2023-02-15T08:46:19;54.00;;;20.17;;
20697;SDS011;10508;50.956;4.640;2023-02-15T08:48:46;49.58;;;19.42;;
20697;SDS011;10508;50.956;4.640;2023-02-15T08:51:16;55.58;;;20.10;;
20697;SDS011;10508;50.956;4.640;2023-02-15T08:53:44;47.45;;;19.67;;
20697;SDS011;10508;50.956;4.640;2023-02-15T08:56:14;71.88;;;20.25;;
20697;SDS011;10508;50.956;4.640;2023-02-15T08:58:40;48.70;;;20.63;;
20697;SDS011;10508;50.956;4.640;2023-02-15T09:01:16;53.20;;;19.52;;
20697;SDS011;10508;50.956;4.640;2023-02-15T09:03:45;42.65;;;18.58;;
20697;SDS011;10508;50.956;4.640;2023-02-15T09:06:11;47.90;;;20.05;;
20697;SDS011;10508;50.956;4.640;2023-02-15T09:08:38;51.42;;;19.52;;
20697;SDS011;10508;50.956;4.640;2023-02-15T09:11:08;47.97;;;18.08;;
20697;SDS011;10508;50.956;4.640;2023-02-15T09:13:47;53.85;;;18.45;;
20697;SDS011;10508;50.956;4.640;2023-02-15T09:16:43;45.95;;;18.40;;
20697;SDS011;10508;50.956;4.640;2023-02-15T09:19:11;40.70;;;18.05;;
20697;SDS011;10508;50.956;4.640;2023-02-15T09:21:37;60.17;;;19.73;;
20697;SDS011;10508;50.956;4.640;2023-02-15T09:24:04;54.60;;;19.35;;
20697;SDS011;10508;50.956;4.640;2023-02-15T09:26:32;40.80;;;18.33;;
20697;SDS011;10508;50.956;4.640;2023-02-15T09:29:00;42.70;;;17.17;;
20697;SDS011;10508;50.956;4.640;2023-02-15T09:31:29;47.65;;;18.15;;
20697;SDS011;10508;50.956;4.640;2023-02-15T09:33:56;47.22;;;18.48;;
20697;SDS011;10508;50.956;4.640;2023-02-15T09:36:26;48.05;;;19.55;;
20697;SDS011;10508;50.956;4.640;2023-02-15T09:38:55;100.53;;;21.75;;
20697;SDS011;10508;50.956;4.640;2023-02-15T09:50:02;47.03;;;16.50;;
20697;SDS011;10508;50.956;4.640;2023-02-15T09:52:17;39.83;;;16.77;;
20697;SDS011;10508;50.956;4.640;2023-02-15T10:08:37;39.35;;;14.18;;
20697;SDS011;10508;50.956;4.640;2023-02-15T10:11:12;36.83;;;14.73;;
20697;SDS011;10508;50.956;4.640;2023-02-15T10:19:27;33.35;;;14.70;;
20697;SDS011;10508;50.956;4.640;2023-02-15T10:27:54;36.80;;;14.68;;
20697;SDS011;10508;50.956;4.640;2023-02-15T10:30:27;37.63;;;14.52;;
20697;SDS011;10508;50.956;4.640;2023-02-15T10:33:04;34.30;;;14.95;;
20697;SDS011;10508;50.956;4.640;2023-02-15T10:46:18;33.00;;;14.00;;
20697;SDS011;10508;50.956;4.640;2023-02-15T10:52:03;31.92;;;15.27;;
20697;SDS011;10508;50.956;4.640;2023-02-15T10:57:09;30.65;;;13.95;;
20697;SDS011;10508;50.956;4.640;2023-02-15T10:59:53;38.25;;;14.18;;
20697;SDS011;10508;50.956;4.640;2023-02-15T11:05:02;34.65;;;15.13;;
20697;SDS011;10508;50.956;4.640;2023-02-15T11:07:40;32.67;;;15.52;;
20697;SDS011;10508;50.956;4.640;2023-02-15T11:12:49;39.08;;;16.60;;
20697;SDS011;10508;50.956;4.640;2023-02-15T11:15:25;33.80;;;14.60;;
20697;SDS011;10508;50.956;4.640;2023-02-15T11:20:59;41.72;;;16.05;;
20697;SDS011;10508;50.956;4.640;2023-02-15T11:23:26;35.13;;;14.75;;
20697;SDS011;10508;50.956;4.640;2023-02-15T11:25:59;31.00;;;14.25;;
20697;SDS011;10508;50.956;4.640;2023-02-15T11:28:38;33.70;;;15.05;;
20697;SDS011;10508;50.956;4.640;2023-02-15T11:31:16;33.15;;;14.30;;
20697;SDS011;10508;50.956;4.640;2023-02-15T11:33:47;30.60;;;13.95;;
20697;SDS011;10508;50.956;4.640;2023-02-15T11:36:33;40.25;;;14.20;;
20697;SDS011;10508;50.956;4.640;2023-02-15T11:39:04;30.05;;;13.63;;
20697;SDS011;10508;50.956;4.640;2023-02-15T11:41:37;36.42;;;14.50;;
20697;SDS011;10508;50.956;4.640;2023-02-15T11:44:08;29.95;;;14.40;;
20697;SDS011;10508;50.956;4.640;2023-02-15T11:46:34;34.33;;;15.35;;
20697;SDS011;10508;50.956;4.640;2023-02-15T11:49:01;37.63;;;14.85;;
20697;SDS011;10508;50.956;4.640;2023-02-15T11:51:27;39.08;;;14.82;;
20697;SDS011;10508;50.956;4.640;2023-02-15T11:53:54;33.85;;;13.55;;
20697;SDS011;10508;50.956;4.640;2023-02-15T11:56:24;54.35;;;14.68;;
20697;SDS011;10508;50.956;4.640;2023-02-15T11:58:53;39.00;;;14.57;;
20697;SDS011;10508;50.956;4.640;2023-02-15T12:04:01;29.42;;;14.23;;
20697;SDS011;10508;50.956;4.640;2023-02-15T12:06:34;32.10;;;14.00;;
20697;SDS011;10508;50.956;4.640;2023-02-15T12:09:18;29.13;;;13.50;;
20697;SDS011;10508;50.956;4.640;2023-02-15T12:11:49;34.50;;;14.45;;
20697;SDS011;10508;50.956;4.640;2023-02-15T12:14:14;37.70;;;15.75;;
20697;SDS011;10508;50.956;4.640;2023-02-15T12:16:48;38.78;;;15.70;;
20697;SDS011;10508;50.956;4.640;2023-02-15T12:22:22;36.80;;;14.20;;
20697;SDS011;10508;50.956;4.640;2023-02-15T12:24:51;46.45;;;16.52;;
20697;SDS011;10508;50.956;4.640;2023-02-15T12:27:35;38.85;;;14.60;;
20697;SDS011;10508;50.956;4.640;2023-02-15T12:30:06;40.67;;;14.52;;
20697;SDS011;10508;50.956;4.640;2023-02-15T12:32:53;38.33;;;14.60;;
20697;SDS011;10508;50.956;4.640;2023-02-15T12:38:03;38.65;;;14.00;;
20697;SDS011;10508;50.956;4.640;2023-02-15T12:40:30;38.50;;;16.90;;
20697;SDS011;10508;50.956;4.640;2023-02-15T12:42:58;43.45;;;15.20;;
20697;SDS011;10508;50.956;4.640;2023-02-15T12:45:31;44.45;;;16.05;;
20697;SDS011;10508;50.956;4.640;2023-02-15T12:48:17;39.90;;;14.65;;
20697;SDS011;10508;50.956;4.640;2023-02-15T12:50:45;39.65;;;15.38;;
20697;SDS011;10508;50.956;4.640;2023-02-15T12:56:03;49.50;;;15.93;;
20697;SDS011;10508;50.956;4.640;2023-02-15T12:58:31;40.97;;;14.25;;
20697;SDS011;10508;50.956;4.640;2023-02-15T13:01:11;44.67;;;16.08;;
20697;SDS011;10508;50.956;4.640;2023-02-15T13:04:01;40.45;;;15.52;;
20697;SDS011;10508;50.956;4.640;2023-02-15T13:06:27;38.45;;;15.13;;
20697;SDS011;10508;50.956;4.640;2023-02-15T13:08:58;31.23;;;13.93;;
20697;SDS011;10508;50.956;4.640;2023-02-15T13:11:39;42.75;;;15.10;;
20697;SDS011;10508;50.956;4.640;2023-02-15T13:16:51;38.72;;;14.98;;
20697;SDS011;10508;50.956;4.640;2023-02-15T13:19:23;38.38;;;14.75;;
20697;SDS011;10508;50.956;4.640;2023-02-15T13:22:11;34.78;;;14.85;;
20697;SDS011;10508;50.956;4.640;2023-02-15T13:24:57;45.33;;;15.90;;
20697;SDS011;10508;50.956;4.640;2023-02-15T13:27:34;34.83;;;14.27;;
20697;SDS011;10508;50.956;4.640;2023-02-15T13:30:13;40.50;;;15.32;;
20697;SDS011;10508;50.956;4.640;2023-02-15T13:33:04;42.53;;;15.73;;
20697;SDS011;10508;50.956;4.640;2023-02-15T13:35:36;32.72;;;14.43;;
20697;SDS011;10508;50.956;4.640;2023-02-15T13:44:15;36.75;;;14.10;;
20697;SDS011;10508;50.956;4.640;2023-02-15T13:52:38;38.10;;;15.40;;
20697;SDS011;10508;50.956;4.640;2023-02-15T14:15:09;36.00;;;15.25;;
20697;SDS011;10508;50.956;4.640;2023-02-15T14:32:12;39.20;;;14.20;;
20697;SDS011;10508;50.956;4.640;2023-02-15T14:34:44;36.55;;;15.18;;
20697;SDS011;10508;50.956;4.640;2023-02-15T14:37:18;34.22;;;13.77;;
20697;SDS011;10508;50.956;4.640;2023-02-15T14:40:06;41.25;;;15.15;;
20697;SDS011;10508;50.956;4.640;2023-02-15T14:43:15;32.78;;;14.38;;
20697;SDS011;10508;50.956;4.640;2023-02-15T14:59:26;37.65;;;14.63;;
20697;SDS011;10508;50.956;4.640;2023-02-15T15:01:59;42.53;;;16.95;;
20697;SDS011;10508;50.956;4.640;2023-02-15T15:04:40;40.72;;;15.80;;
20697;SDS011;10508;50.956;4.640;2023-02-15T15:07:21;40.33;;;14.95;;
20697;SDS011;10508;50.956;4.640;2023-02-15T15:09:58;50.70;;;18.00;;
20697;SDS011;10508;50.956;4.640;2023-02-15T15:12:51;35.13;;;15.48;;
20697;SDS011;10508;50.956;4.640;2023-02-15T15:17:54;37.90;;;15.95;;
20697;SDS011;10508;50.956;4.640;2023-02-15T15:25:57;39.78;;;16.80;;
20697;SDS011;10508;50.956;4.640;2023-02-15T15:31:32;46.55;;;16.30;;
20697;SDS011;10508;50.956;4.640;2023-02-15T15:37:32;52.75;;;17.60;;
20697;SDS011;10508;50.956;4.640;2023-02-15T15:40:38;54.80;;;17.25;;
20697;SDS011;10508;50.956;4.640;2023-02-15T15:48:49;43.67;;;16.23;;
20697;SDS011;10508;50.956;4.640;2023-02-15T15:51:21;42.03;;;17.63;;
20697;SDS011;10508;50.956;4.640;2023-02-15T15:53:54;56.35;;;18.30;;
20697;SDS011;10508;50.956;4.640;2023-02-15T15:56:21;45.35;;;17.50;;
20697;SDS011;10508;50.956;4.640;2023-02-15T15:58:56;48.78;;;18.17;;
20697;SDS011;10508;50.956;4.640;2023-02-15T16:01:26;45.80;;;18.75;;
20697;SDS011;10508;50.956;4.640;2023-02-15T16:03:53;66.13;;;20.90;;
20697;SDS011;10508;50.956;4.640;2023-02-15T16:06:29;45.88;;;19.05;;
20697;SDS011;10508;50.956;4.640;2023-02-15T16:09:14;45.88;;;18.88;;
20697;SDS011;10508;50.956;4.640;2023-02-15T16:11:43;51.60;;;18.95;;
20697;SDS011;10508;50.956;4.640;2023-02-15T16:14:23;46.75;;;19.48;;
20697;SDS011;10508;50.956;4.640;2023-02-15T16:17:00;50.08;;;18.52;;
20697;SDS011;10508;50.956;4.640;2023-02-15T16:19:30;45.92;;;19.05;;
20697;SDS011;10508;50.956;4.640;2023-02-15T16:22:00;57.75;;;19.55;;
20697;SDS011;10508;50.956;4.640;2023-02-15T16:27:35;47.80;;;17.83;;
20697;SDS011;10508;50.956;4.640;2023-02-15T16:30:36;44.60;;;17.70;;
20697;SDS011;10508;50.956;4.640;2023-02-15T16:33:06;47.42;;;18.65;;
20697;SDS011;10508;50.956;4.640;2023-02-15T16:35:32;51.67;;;18.23;;
20697;SDS011;10508;50.956;4.640;2023-02-15T16:37:58;45.95;;;18.27;;
20697;SDS011;10508;50.956;4.640;2023-02-15T16:42:50;46.90;;;18.77;;
20697;SDS011;10508;50.956;4.640;2023-02-15T16:45:19;45.50;;;19.23;;
20697;SDS011;10508;50.956;4.640;2023-02-15T16:47:48;44.70;;;17.98;;
20697;SDS011;10508;50.956;4.640;2023-02-15T16:50:38;50.10;;;19.40;;
20697;SDS011;10508;50.956;4.640;2023-02-15T16:53:04;56.17;;;19.60;;
20697;SDS011;10508;50.956;4.640;2023-02-15T16:55:41;53.28;;;21.67;;
20697;SDS011;10508;50.956;4.640;2023-02-15T16:58:12;50.45;;;19.70;;
20697;SDS011;10508;50.956;4.640;2023-02-15T17:00:40;51.47;;;20.63;;
20697;SDS011;10508;50.956;4.640;2023-02-15T17:08:31;54.90;;;20.00;;
20697;SDS011;10508;50.956;4.640;2023-02-15T17:13:24;49.53;;;19.10;;
20697;SDS011;10508;50.956;4.640;2023-02-15T17:18:26;57.53;;;20.75;;
20697;SDS011;10508;50.956;4.640;2023-02-15T17:20:53;51.90;;;18.80;;
20697;SDS011;10508;50.956;4.640;2023-02-15T17:23:29;48.75;;;22.13;;
20697;SDS011;10508;50.956;4.640;2023-02-15T17:26:01;50.33;;;20.10;;
20697;SDS011;10508;50.956;4.640;2023-02-15T17:28:55;51.75;;;20.60;;
20697;SDS011;10508;50.956;4.640;2023-02-15T17:31:24;51.22;;;19.75;;
20697;SDS011;10508;50.956;4.640;2023-02-15T17:33:53;52.78;;;20.85;;
20697;SDS011;10508;50.956;4.640;2023-02-15T17:36:21;56.63;;;22.50;;
20697;SDS011;10508;50.956;4.640;2023-02-15T17:41:23;67.22;;;29.02;;
20697;SDS011;10508;50.956;4.640;2023-02-15T17:43:49;59.83;;;23.60;;
20697;SDS011;10508;50.956;4.640;2023-02-15T17:46:15;57.60;;;22.02;;
20697;SDS011;10508;50.956;4.640;2023-02-15T17:48:45;52.08;;;21.17;;
20697;SDS011;10508;50.956;4.640;2023-02-15T17:51:13;52.92;;;19.27;;
20697;SDS011;10508;50.956;4.640;2023-02-15T17:53:39;63.05;;;21.52;;
20697;SDS011;10508;50.956;4.640;2023-02-15T17:56:26;44.53;;;18.17;;
20697;SDS011;10508;50.956;4.640;2023-02-15T17:58:51;50.15;;;19.88;;
20697;SDS011;10508;50.956;4.640;2023-02-15T18:01:17;53.20;;;21.13;;
20697;SDS011;10508;50.956;4.640;2023-02-15T18:04:03;51.00;;;19.60;;
20697;SDS011;10508;50.956;4.640;2023-02-15T18:06:49;53.95;;;19.63;;
20697;SDS011;10508;50.956;4.640;2023-02-15T18:09:33;50.22;;;19.92;;
20697;SDS011;10508;50.956;4.640;2023-02-15T18:12:24;51.60;;;19.98;;